sensor_id;sensor_type;location;lat;lon;timestamp;pressure;altitude;pressure_sealevel;temperature
71205;BMP180;58935;54.498;18.544;2022-11-03T18:13:11;100626.80;;;8.60
71205;BMP180;58935;54.498;18.544;2022-11-03T18:15:44;100620.60;;;8.60
71205;BMP180;58935;54.498;18.544;2022-11-03T18:18:16;100617.80;;;8.60
71205;BMP180;58935;54.498;18.544;2022-11-03T18:20:46;100614.40;;;8.60
71205;BMP180;58935;54.498;18.544;2022-11-03T18:23:17;100614.80;;;8.60
71205;BMP180;58935;54.498;18.544;2022-11-03T18:25:43;100615.60;;;8.50
71205;BMP180;58935;54.498;18.544;2022-11-03T18:28:09;100607.00;;;8.50
71205;BMP180;58935;54.498;18.544;2022-11-03T18:30:36;100603.40;;;8.50
71205;BMP180;58935;54.498;18.544;2022-11-03T18:33:01;100605.00;;;8.50
71205;BMP180;58935;54.498;18.544;2022-11-03T18:35:31;100598.40;;;8.40
71205;BMP180;58935;54.498;18.544;2022-11-03T18:37:58;100593.00;;;8.40
71205;BMP180;58935;54.498;18.544;2022-11-03T18:40:23;100592.40;;;8.40
71205;BMP180;58935;54.498;18.544;2022-11-03T18:42:48;100591.00;;;8.40
71205;BMP180;58935;54.498;18.544;2022-11-03T18:45:17;100588.80;;;8.40
71205;BMP180;58935;54.498;18.544;2022-11-03T18:47:44;100583.00;;;8.40
71205;BMP180;58935;54.498;18.544;2022-11-03T18:50:13;100582.80;;;8.40
71205;BMP180;58935;54.498;18.544;2022-11-03T18:52:43;100580.00;;;8.40
71205;BMP180;58935;54.498;18.544;2022-11-03T18:55:10;100573.40;;;8.40
71205;BMP180;58935;54.498;18.544;2022-11-03T18:57:36;100570.80;;;8.40
71205;BMP180;58935;54.498;18.544;2022-11-03T19:00:04;100561.60;;;8.40
71205;BMP180;58935;54.498;18.544;2022-11-03T19:02:29;100556.60;;;8.30
71205;BMP180;58935;54.498;18.544;2022-11-03T19:04:54;100556.00;;;8.30
71205;BMP180;58935;54.498;18.544;2022-11-03T19:07:24;100553.60;;;8.28
71205;BMP180;58935;54.498;18.544;2022-11-03T19:09:50;100549.20;;;8.20
71205;BMP180;58935;54.498;18.544;2022-11-03T19:12:16;100541.40;;;8.20
71205;BMP180;58935;54.498;18.544;2022-11-03T19:14:43;100538.60;;;8.20
71205;BMP180;58935;54.498;18.544;2022-11-03T19:17:15;100538.80;;;8.14
71205;BMP180;58935;54.498;18.544;2022-11-03T19:19:40;100537.00;;;8.10
71205;BMP180;58935;54.498;18.544;2022-11-03T19:22:11;100539.80;;;8.10
71205;BMP180;58935;54.498;18.544;2022-11-03T19:24:37;100538.20;;;8.10
71205;BMP180;58935;54.498;18.544;2022-11-03T19:27:04;100531.40;;;8.10
71205;BMP180;58935;54.498;18.544;2022-11-03T19:29:32;100531.80;;;8.10
71205;BMP180;58935;54.498;18.544;2022-11-03T19:31:59;100532.40;;;8.10
71205;BMP180;58935;54.498;18.544;2022-11-03T19:34:29;100530.60;;;8.10
71205;BMP180;58935;54.498;18.544;2022-11-03T19:36:58;100524.00;;;8.10
71205;BMP180;58935;54.498;18.544;2022-11-03T19:39:27;100525.40;;;8.10
71205;BMP180;58935;54.498;18.544;2022-11-03T19:41:59;100518.20;;;8.00
71205;BMP180;58935;54.498;18.544;2022-11-03T19:44:28;100518.80;;;8.00
71205;BMP180;58935;54.498;18.544;2022-11-03T19:46:56;100517.80;;;8.00
71205;BMP180;58935;54.498;18.544;2022-11-03T19:49:24;100514.00;;;8.00
71205;BMP180;58935;54.498;18.544;2022-11-03T19:51:49;100515.00;;;7.90
71205;BMP180;58935;54.498;18.544;2022-11-03T19:54:17;100513.20;;;7.92
71205;BMP180;58935;54.498;18.544;2022-11-03T19:56:43;100507.60;;;7.90
71205;BMP180;58935;54.498;18.544;2022-11-03T19:59:11;100506.20;;;7.90
71205;BMP180;58935;54.498;18.544;2022-11-03T20:01:36;100501.80;;;7.90
71205;BMP180;58935;54.498;18.544;2022-11-03T20:04:02;100502.60;;;7.90
71205;BMP180;58935;54.498;18.544;2022-11-03T20:06:28;100498.00;;;7.88
71205;BMP180;58935;54.498;18.544;2022-11-03T20:08:58;100492.60;;;7.80
71205;BMP180;58935;54.498;18.544;2022-11-03T20:11:24;100495.80;;;7.80
71205;BMP180;58935;54.498;18.544;2022-11-03T20:13:49;100489.40;;;7.80
71205;BMP180;58935;54.498;18.544;2022-11-03T20:16:15;100495.00;;;7.72
71205;BMP180;58935;54.498;18.544;2022-11-03T20:18:41;100491.80;;;7.70
71205;BMP180;58935;54.498;18.544;2022-11-03T20:21:13;100487.80;;;7.70
71205;BMP180;58935;54.498;18.544;2022-11-03T20:23:39;100481.80;;;7.70
71205;BMP180;58935;54.498;18.544;2022-11-03T20:26:10;100482.00;;;7.70
71205;BMP180;58935;54.498;18.544;2022-11-03T20:28:36;100476.00;;;7.70
71205;BMP180;58935;54.498;18.544;2022-11-03T20:31:02;100476.80;;;7.62
71205;BMP180;58935;54.498;18.544;2022-11-03T20:33:31;100468.00;;;7.64
71205;BMP180;58935;54.498;18.544;2022-11-03T20:35:56;100465.40;;;7.60
71205;BMP180;58935;54.498;18.544;2022-11-03T20:38:23;100457.80;;;7.60
71205;BMP180;58935;54.498;18.544;2022-11-03T20:40:53;100458.00;;;7.60
71205;BMP180;58935;54.498;18.544;2022-11-03T20:43:27;100452.00;;;7.60
71205;BMP180;58935;54.498;18.544;2022-11-03T20:45:55;100452.20;;;7.60
71205;BMP180;58935;54.498;18.544;2022-11-03T20:48:22;100451.80;;;7.50
71205;BMP180;58935;54.498;18.544;2022-11-03T20:50:48;100450.20;;;7.50
71205;BMP180;58935;54.498;18.544;2022-11-03T20:53:14;100447.80;;;7.50
71205;BMP180;58935;54.498;18.544;2022-11-03T20:55:41;100443.60;;;7.42
71205;BMP180;58935;54.498;18.544;2022-11-03T20:58:11;100444.40;;;7.40
71205;BMP180;58935;54.498;18.544;2022-11-03T21:00:37;100438.20;;;7.40
71205;BMP180;58935;54.498;18.544;2022-11-03T21:03:13;100439.80;;;7.40
71205;BMP180;58935;54.498;18.544;2022-11-03T21:05:39;100441.00;;;7.40
71205;BMP180;58935;54.498;18.544;2022-11-03T21:08:04;100439.20;;;7.34
71205;BMP180;58935;54.498;18.544;2022-11-03T21:10:29;100432.80;;;7.30
71205;BMP180;58935;54.498;18.544;2022-11-03T21:12:54;100433.20;;;7.30
71205;BMP180;58935;54.498;18.544;2022-11-03T21:15:23;100428.20;;;7.30
71205;BMP180;58935;54.498;18.544;2022-11-03T21:17:51;100421.00;;;7.30
71205;BMP180;58935;54.498;18.544;2022-11-03T21:20:19;100419.20;;;7.26
71205;BMP180;58935;54.498;18.544;2022-11-03T21:22:44;100415.00;;;7.20
71205;BMP180;58935;54.498;18.544;2022-11-03T21:25:12;100411.60;;;7.20
71205;BMP180;58935;54.498;18.544;2022-11-03T21:27:37;100409.40;;;7.20
71205;BMP180;58935;54.498;18.544;2022-11-03T21:30:03;100412.40;;;7.20
71205;BMP180;58935;54.498;18.544;2022-11-03T21:32:28;100404.60;;;7.20
71205;BMP180;58935;54.498;18.544;2022-11-03T21:34:54;100403.80;;;7.20
71205;BMP180;58935;54.498;18.544;2022-11-03T21:37:19;100402.00;;;7.20
71205;BMP180;58935;54.498;18.544;2022-11-03T21:39:45;100402.00;;;7.20
71205;BMP180;58935;54.498;18.544;2022-11-03T21:42:14;100398.40;;;7.20
71205;BMP180;58935;54.498;18.544;2022-11-03T21:44:42;100391.60;;;7.20
71205;BMP180;58935;54.498;18.544;2022-11-03T21:47:10;100388.80;;;7.20
71205;BMP180;58935;54.498;18.544;2022-11-03T21:49:35;100390.40;;;7.18
71205;BMP180;58935;54.498;18.544;2022-11-03T21:52:03;100390.20;;;7.10
71205;BMP180;58935;54.498;18.544;2022-11-03T21:54:29;100384.80;;;7.10
71205;BMP180;58935;54.498;18.544;2022-11-03T21:56:54;100383.40;;;7.02
71205;BMP180;58935;54.498;18.544;2022-11-03T21:59:19;100383.00;;;7.00
71205;BMP180;58935;54.498;18.544;2022-11-03T22:01:44;100375.00;;;7.00
71205;BMP180;58935;54.498;18.544;2022-11-03T22:04:10;100377.60;;;7.00
71205;BMP180;58935;54.498;18.544;2022-11-03T22:06:35;100380.00;;;7.00
71205;BMP180;58935;54.498;18.544;2022-11-03T22:09:01;100378.20;;;7.00
71205;BMP180;58935;54.498;18.544;2022-11-03T22:11:26;100375.00;;;6.96
71205;BMP180;58935;54.498;18.544;2022-11-03T22:13:57;100369.40;;;6.90
71205;BMP180;58935;54.498;18.544;2022-11-03T22:16:23;100363.60;;;6.92
71205;BMP180;58935;54.498;18.544;2022-11-03T22:18:52;100363.80;;;6.90
71205;BMP180;58935;54.498;18.544;2022-11-03T22:21:37;100363.00;;;6.90
71205;BMP180;58935;54.498;18.544;2022-11-03T22:24:07;100365.00;;;6.90
71205;BMP180;58935;54.498;18.544;2022-11-03T22:26:36;100357.20;;;6.90
71205;BMP180;58935;54.498;18.544;2022-11-03T22:29:04;100351.40;;;6.90
71205;BMP180;58935;54.498;18.544;2022-11-03T22:31:49;100349.40;;;6.90
71205;BMP180;58935;54.498;18.544;2022-11-03T22:34:14;100351.60;;;6.90
71205;BMP180;58935;54.498;18.544;2022-11-03T22:36:42;100347.40;;;6.90
71205;BMP180;58935;54.498;18.544;2022-11-03T22:39:08;100348.20;;;6.90
71205;BMP180;58935;54.498;18.544;2022-11-03T22:41:36;100343.40;;;6.90
71205;BMP180;58935;54.498;18.544;2022-11-03T22:44:04;100340.20;;;6.88
71205;BMP180;58935;54.498;18.544;2022-11-03T22:46:35;100340.40;;;6.80
71205;BMP180;58935;54.498;18.544;2022-11-03T22:49:00;100334.80;;;6.80
71205;BMP180;58935;54.498;18.544;2022-11-03T22:51:25;100328.80;;;6.80
71205;BMP180;58935;54.498;18.544;2022-11-03T22:53:51;100333.80;;;6.80
71205;BMP180;58935;54.498;18.544;2022-11-03T22:56:20;100319.80;;;6.74
71205;BMP180;58935;54.498;18.544;2022-11-03T22:58:46;100315.60;;;6.70
71205;BMP180;58935;54.498;18.544;2022-11-03T23:01:13;100307.20;;;6.70
71205;BMP180;58935;54.498;18.544;2022-11-03T23:03:40;100306.20;;;6.70
71205;BMP180;58935;54.498;18.544;2022-11-03T23:06:08;100298.60;;;6.64
71205;BMP180;58935;54.498;18.544;2022-11-03T23:08:35;100302.20;;;6.68
71205;BMP180;58935;54.498;18.544;2022-11-03T23:11:03;100302.80;;;6.62
71205;BMP180;58935;54.498;18.544;2022-11-03T23:13:29;100302.60;;;6.60
71205;BMP180;58935;54.498;18.544;2022-11-03T23:15:58;100296.00;;;6.60
71205;BMP180;58935;54.498;18.544;2022-11-03T23:18:24;100291.60;;;6.60
71205;BMP180;58935;54.498;18.544;2022-11-03T23:20:52;100290.60;;;6.60
71205;BMP180;58935;54.498;18.544;2022-11-03T23:23:20;100286.20;;;6.60
71205;BMP180;58935;54.498;18.544;2022-11-03T23:25:48;100283.40;;;6.60
71205;BMP180;58935;54.498;18.544;2022-11-03T23:28:13;100283.20;;;6.60
71205;BMP180;58935;54.498;18.544;2022-11-03T23:30:41;100279.60;;;6.56
71205;BMP180;58935;54.498;18.544;2022-11-03T23:33:06;100277.20;;;6.50
71205;BMP180;58935;54.498;18.544;2022-11-03T23:35:31;100267.80;;;6.50
71205;BMP180;58935;54.498;18.544;2022-11-03T23:37:57;100264.40;;;6.50
71205;BMP180;58935;54.498;18.544;2022-11-03T23:40:27;100257.80;;;6.50
71205;BMP180;58935;54.498;18.544;2022-11-03T23:42:55;100255.60;;;6.50
71205;BMP180;58935;54.498;18.544;2022-11-03T23:45:23;100258.60;;;6.44
71205;BMP180;58935;54.498;18.544;2022-11-03T23:47:51;100256.80;;;6.50
71205;BMP180;58935;54.498;18.544;2022-11-03T23:50:19;100253.80;;;6.50
71205;BMP180;58935;54.498;18.544;2022-11-03T23:52:46;100247.60;;;6.50
71205;BMP180;58935;54.498;18.544;2022-11-03T23:55:14;100242.80;;;6.50
71205;BMP180;58935;54.498;18.544;2022-11-03T23:57:39;100240.80;;;6.44
